Time;durP1;ratioP1;P1;durP2;ratioP2;P2;SDS_P1;SDS_P2;PMS_P1;PMS_P2;Temp;Humidity;BMP_temperature;BMP_pressure;BME280_temperature;BME280_humidity;BME280_pressure;Samples;Min_cycle;Max_cycle;Signal;HPM_P1;HPM_P2
2022/12/13 00:01:31;;;;;;;40.83;13.93;;;;;;;-6.97;100.00;101294.31;5013927;28;20029;-71
2022/12/13 00:03:58;;;;;;;38.13;14.35;;;;;;;-6.99;100.00;101287.44;5010016;28;20112;-71
2022/12/13 00:06:24;;;;;;;36.85;13.43;;;;;;;-7.00;100.00;101290.75;4998554;28;20113;-71
2022/12/13 00:08:50;;;;;;;38.42;13.63;;;;;;;-6.99;100.00;101289.97;5024272;28;20078;-71
2022/12/13 00:11:16;;;;;;;37.33;14.32;;;;;;;-7.03;100.00;101295.63;5023081;28;20076;-71
2022/12/13 00:13:42;;;;;;;34.42;13.50;;;;;;;-7.07;100.00;101278.59;5012669;28;20037;-71
2022/12/13 00:16:12;;;;;;;35.08;13.35;;;;;;;-7.08;100.00;101285.28;5018519;28;20092;-71
2022/12/13 00:18:37;;;;;;;38.88;14.15;;;;;;;-7.09;100.00;101285.19;5023634;28;20025;-71
2022/12/13 00:21:05;;;;;;;39.35;13.82;;;;;;;-7.09;100.00;101278.50;5002742;28;20033;-71
2022/12/13 00:23:30;;;;;;;38.40;14.18;;;;;;;-7.09;100.00;101277.66;5029120;28;20028;-71
2022/12/13 00:26:03;;;;;;;36.42;13.45;;;;;;;-7.13;100.00;101273.25;5029850;28;20025;-71
2022/12/13 00:28:29;;;;;;;39.75;13.88;;;;;;;-7.11;100.00;101270.03;5027469;28;20034;-75
2022/12/13 00:30:59;;;;;;;37.10;13.93;;;;;;;-7.09;100.00;101280.16;5023872;28;20029;-75
2022/12/13 00:33:24;;;;;;;38.58;13.48;;;;;;;-7.09;100.00;101277.66;5023585;28;20030;-75
2022/12/13 00:35:50;;;;;;;35.85;14.13;;;;;;;-7.12;100.00;101270.81;5002095;28;20037;-75
2022/12/13 00:38:16;;;;;;;47.25;14.07;;;;;;;-7.16;100.00;101276.44;5025734;28;20329;-75
2022/12/13 00:40:41;;;;;;;36.20;13.52;;;;;;;-7.16;100.00;101273.94;5029592;28;20037;-75
2022/12/13 00:43:06;;;;;;;37.65;14.15;;;;;;;-7.16;100.00;101268.06;5012982;28;20107;-75
2022/12/13 00:45:32;;;;;;;44.28;15.00;;;;;;;-7.18;100.00;101271.34;5013934;28;20129;-75
2022/12/13 00:47:58;;;;;;;37.45;14.02;;;;;;;-7.21;100.00;101266.16;5024927;28;20052;-75
2022/12/13 00:50:23;;;;;;;44.03;15.60;;;;;;;-7.20;100.00;101274.56;5006046;28;20037;-75
2022/12/13 00:52:49;;;;;;;41.90;14.82;;;;;;;-7.22;100.00;101271.09;5021824;28;20037;-76
2022/12/13 00:55:14;;;;;;;42.97;14.30;;;;;;;-7.21;100.00;101275.34;5020543;28;20033;-75
2022/12/13 00:57:40;;;;;;;40.63;13.63;;;;;;;-7.25;100.00;101270.94;5005006;28;20503;-76
2022/12/13 01:00:06;;;;;;;39.05;14.30;;;;;;;-7.26;100.00;101264.16;5010629;28;20288;-75
2022/12/13 01:02:31;;;;;;;38.55;14.25;;;;;;;-7.26;100.00;101269.19;5007508;28;20111;-76
2022/12/13 01:04:57;;;;;;;37.95;13.98;;;;;;;-7.25;100.00;101271.81;5020455;28;20108;-75
2022/12/13 01:07:22;;;;;;;41.15;14.32;;;;;;;-7.25;100.00;101275.97;5019579;28;20523;-75
2022/12/13 01:09:47;;;;;;;41.05;14.10;;;;;;;-7.28;100.00;101278.31;5028827;28;20392;-76
2022/12/13 01:12:13;;;;;;;42.53;14.43;;;;;;;-7.27;100.00;101275.00;5029354;28;20021;-75
2022/12/13 01:14:39;;;;;;;38.47;14.50;;;;;;;-7.27;100.00;101272.50;5018992;28;20031;-75
2022/12/13 01:17:05;;;;;;;36.10;14.50;;;;;;;-7.27;100.00;101267.47;5020945;28;20281;-75
2022/12/13 01:19:31;;;;;;;41.50;14.45;;;;;;;-7.28;100.00;101259.03;5031486;28;20041;-76
2022/12/13 01:21:59;;;;;;;43.92;14.85;;;;;;;-7.28;100.00;101265.72;5024735;28;20489;-75
2022/12/13 01:24:24;;;;;;;41.00;14.50;;;;;;;-7.29;100.00;101259.81;5031203;28;20021;-76
2022/12/13 01:26:51;;;;;;;38.63;13.68;;;;;;;-7.28;100.00;101268.25;5032904;28;20056;-75
2022/12/13 01:29:18;;;;;;;37.28;13.90;;;;;;;-7.29;100.00;101263.97;5022331;28;20552;-75
2022/12/13 01:31:43;;;;;;;38.03;14.35;;;;;;;-7.29;100.00;101269.03;5021961;28;20045;-75
2022/12/13 01:34:10;;;;;;;37.97;14.68;;;;;;;-7.29;100.00;101262.34;5028251;28;20025;-76
2022/12/13 01:36:37;;;;;;;35.53;14.48;;;;;;;-7.30;100.00;101263.13;5014067;28;20014;-75
2022/12/13 01:39:02;;;;;;;40.50;14.52;;;;;;;-7.31;100.00;101268.97;5028570;28;20014;-75
2022/12/13 01:41:28;;;;;;;41.05;14.75;;;;;;;-7.32;100.00;101267.22;5022314;28;20028;-75
2022/12/13 01:44:24;;;;;;;43.35;15.93;;;;;;;-7.33;100.00;101272.16;5021082;28;20080;-75
2022/12/13 01:46:49;;;;;;;39.25;14.38;;;;;;;-7.35;100.00;101273.72;5032297;28;20112;-75
2022/12/13 01:49:17;;;;;;;40.65;15.32;;;;;;;-7.40;100.00;101260.91;5021114;28;20457;-75
2022/12/13 01:51:50;;;;;;;44.53;15.63;;;;;;;-7.39;100.00;101270.19;5025060;28;20112;-75
2022/12/13 01:54:21;;;;;;;41.75;15.20;;;;;;;-7.39;100.00;101275.22;5019767;28;20508;-76
2022/12/13 01:56:51;;;;;;;45.47;15.85;;;;;;;-7.40;100.00;101272.63;5013230;28;20061;-76
2022/12/13 01:59:18;;;;;;;45.40;15.43;;;;;;;-7.42;100.00;101276.69;5004825;28;20026;-71
2022/12/13 02:01:45;;;;;;;43.95;15.05;;;;;;;-7.45;100.00;101274.88;5032196;28;20167;-71
2022/12/13 02:04:11;;;;;;;45.35;15.55;;;;;;;-7.46;100.00;101270.63;5030161;28;20375;-71
2022/12/13 02:06:40;;;;;;;43.08;16.45;;;;;;;-7.47;100.00;101268.91;5024642;28;20542;-71
2022/12/13 02:09:07;;;;;;;44.13;14.95;;;;;;;-7.48;100.00;101277.22;5025190;28;20052;-71
2022/12/13 02:11:35;;;;;;;45.05;15.98;;;;;;;-7.46;100.00;101274.81;5023398;28;20391;-72
2022/12/13 02:14:01;;;;;;;52.95;15.13;;;;;;;-7.49;100.00;101265.41;5012996;28;20032;-71
2022/12/13 02:16:43;;;;;;;45.72;15.43;;;;;;;-7.48;100.00;101272.19;5014995;28;20034;-71
2022/12/13 02:19:11;;;;;;;41.70;15.45;;;;;;;-7.47;100.00;101270.53;5019001;28;20040;-71
2022/12/13 02:21:48;;;;;;;37.60;14.40;;;;;;;-7.49;100.00;101269.59;5031643;28;20036;-71
2022/12/13 02:24:58;;;;;;;44.10;15.13;;;;;;;-7.49;100.00;101267.06;5021452;28;20025;-71
2022/12/13 02:27:54;;;;;;;39.63;13.68;;;;;;;-7.51;100.00;101267.00;4989584;28;20035;-71
2022/12/13 02:30:21;;;;;;;45.92;14.98;;;;;;;-7.52;100.00;101266.91;5013470;28;20381;-75
2022/12/13 02:33:23;;;;;;;41.70;15.50;;;;;;;-7.52;100.00;101270.31;5014605;28;20026;-75
2022/12/13 02:36:11;;;;;;;35.20;14.23;;;;;;;-7.55;100.00;101262.56;5020828;28;20059;-75
2022/12/13 02:38:48;;;;;;;42.17;13.98;;;;;;;-7.55;100.00;101266.72;5019696;28;20025;-76
2022/12/13 02:41:33;;;;;;;40.38;14.50;;;;;;;-7.58;100.00;101257.38;5031178;28;20476;-75
2022/12/13 02:44:16;;;;;;;44.88;14.65;;;;;;;-7.59;100.00;101260.69;5031370;28;20100;-75
2022/12/13 02:46:49;;;;;;;40.60;14.37;;;;;;;-7.60;100.00;101259.81;5019130;28;20268;-75
2022/12/13 02:49:16;;;;;;;40.83;14.45;;;;;;;-7.62;100.00;101256.31;5015581;28;20025;-75
2022/12/13 02:51:42;;;;;;;44.03;14.57;;;;;;;-7.62;100.00;101252.94;5026107;28;20396;-75
2022/12/13 02:54:08;;;;;;;39.67;14.27;;;;;;;-7.62;100.00;101257.97;5011110;28;20025;-75
2022/12/13 02:56:34;;;;;;;41.08;14.82;;;;;;;-7.61;100.00;101250.53;5027105;28;20086;-76
2022/12/13 02:59:04;;;;;;;43.60;14.80;;;;;;;-7.62;100.00;101252.94;5021532;28;20485;-71
2022/12/13 03:01:48;;;;;;;39.78;13.77;;;;;;;-7.62;100.00;101245.41;5023488;28;20121;-71
2022/12/13 03:04:22;;;;;;;47.95;14.63;;;;;;;-7.61;100.00;101245.47;5023462;28;20055;-71
2022/12/13 03:06:55;;;;;;;40.17;13.90;;;;;;;-7.62;100.00;101243.75;5023834;28;20037;-71
2022/12/13 03:09:43;;;;;;;38.88;14.30;;;;;;;-7.62;100.00;101235.31;5009699;28;20045;-71
2022/12/13 03:15:37;;;;;;;47.03;15.35;;;;;;;-7.66;100.00;101241.00;5025794;28;20032;-71
2022/12/13 03:18:14;;;;;;;41.60;15.00;;;;;;;-7.67;100.00;101235.09;5026348;28;20542;-71
2022/12/13 03:20:46;;;;;;;39.90;13.32;;;;;;;-7.66;100.00;101236.81;5011068;28;20021;-71
2022/12/13 03:23:12;;;;;;;39.60;14.30;;;;;;;-7.68;100.00;101240.03;5015323;28;20056;-71
2022/12/13 03:25:37;;;;;;;40.13;13.25;;;;;;;-7.69;100.00;101240.81;5022520;28;20029;-71
2022/12/13 03:28:03;;;;;;;42.67;14.70;;;;;;;-7.71;100.00;101237.38;5029284;28;20059;-70
2022/12/13 03:30:31;;;;;;;40.45;13.55;;;;;;;-7.74;100.00;101238.03;5029573;28;20031;-75
2022/12/13 03:32:57;;;;;;;39.92;13.93;;;;;;;-7.73;100.00;101238.91;5030462;28;20116;-75
2022/12/13 03:35:23;;;;;;;39.20;13.73;;;;;;;-7.74;100.00;101240.56;5030158;28;20108;-75
2022/12/13 03:37:49;;;;;;;45.63;14.15;;;;;;;-7.72;100.00;101244.03;5016945;28;20033;-75
2022/12/13 03:40:15;;;;;;;40.83;13.80;;;;;;;-7.72;100.00;101248.19;5020861;28;20034;-75
2022/12/13 03:42:40;;;;;;;38.60;14.68;;;;;;;-7.76;100.00;101238.72;5030202;28;20021;-75
2022/12/13 03:45:06;;;;;;;40.08;13.45;;;;;;;-7.70;100.00;101247.47;5029889;28;20075;-75
2022/12/13 03:47:31;;;;;;;41.05;13.23;;;;;;;-7.72;100.00;101245.69;5028808;28;20037;-75
2022/12/13 03:49:56;;;;;;;38.88;14.48;;;;;;;-7.76;100.00;101239.59;5019904;28;20021;-75
2022/12/13 03:52:22;;;;;;;40.20;13.25;;;;;;;-7.74;100.00;101239.69;5009972;28;20123;-75
2022/12/13 03:54:47;;;;;;;39.63;13.35;;;;;;;-7.73;100.00;101248.97;5017452;28;20033;-75
2022/12/13 03:57:14;;;;;;;46.08;14.63;;;;;;;-7.74;100.00;101247.25;5018571;28;20132;-76
2022/12/13 03:59:40;;;;;;;36.05;13.77;;;;;;;-7.74;100.00;101234.66;5030093;28;20511;-75
2022/12/13 04:02:05;;;;;;;41.75;14.35;;;;;;;-7.74;100.00;101233.00;5029894;28;20021;-75
2022/12/13 04:04:30;;;;;;;39.25;14.18;;;;;;;-7.74;100.00;101239.69;5029858;28;20512;-75
2022/12/13 04:06:56;;;;;;;38.88;13.38;;;;;;;-7.76;100.00;101229.53;5018863;28;20053;-75
2022/12/13 04:09:21;;;;;;;45.78;14.52;;;;;;;-7.75;100.00;101235.44;5016033;28;20531;-75
2022/12/13 04:14:30;;;;;;;38.88;13.18;;;;;;;-7.78;100.00;101230.25;5018285;28;20049;-75
2022/12/13 04:16:55;;;;;;;41.72;13.23;;;;;;;-7.79;100.00;101229.38;5029849;28;20124;-76
2022/12/13 04:19:21;;;;;;;40.10;13.60;;;;;;;-7.80;100.00;101236.84;5029816;28;20425;-75
2022/12/13 04:21:46;;;;;;;45.13;14.15;;;;;;;-7.83;100.00;101235.00;5017664;28;20034;-75
2022/12/13 04:24:11;;;;;;;42.80;15.07;;;;;;;-7.84;100.00;101222.34;5022025;28;20029;-76
2022/12/13 04:26:37;;;;;;;39.72;13.82;;;;;;;-7.83;100.00;101224.06;5018162;28;20029;-75
2022/12/13 04:29:02;;;;;;;42.63;14.60;;;;;;;-7.86;100.00;101222.28;5023057;28;20018;-75
2022/12/13 04:31:27;;;;;;;42.15;14.13;;;;;;;-7.86;100.00;101217.25;5009972;28;20030;-75
2022/12/13 04:33:53;;;;;;;41.47;14.52;;;;;;;-7.85;100.00;101218.97;5008332;28;20105;-75
2022/12/13 04:36:24;;;;;;;43.83;15.00;;;;;;;-7.86;100.00;101217.25;5008261;28;20041;-75
2022/12/13 04:38:49;;;;;;;41.90;14.63;;;;;;;-7.85;100.00;101220.63;5027533;28;20200;-75
2022/12/13 04:41:17;;;;;;;46.38;14.43;;;;;;;-7.87;100.00;101222.19;5019076;28;20034;-75
2022/12/13 04:43:43;;;;;;;38.05;13.55;;;;;;;-7.85;100.00;101213.09;5027725;28;20082;-75
2022/12/13 04:46:09;;;;;;;47.28;14.25;;;;;;;-7.88;100.00;101206.22;5029673;28;20037;-75
2022/12/13 04:48:35;;;;;;;44.28;15.35;;;;;;;-7.86;100.00;101213.88;5025443;28;20045;-75
2022/12/13 04:51:00;;;;;;;42.03;14.32;;;;;;;-7.89;100.00;101211.16;5026415;28;20187;-75
2022/12/13 04:53:26;;;;;;;43.42;13.93;;;;;;;-7.89;100.00;101208.66;5012748;28;20033;-75
2022/12/13 04:55:52;;;;;;;44.13;14.18;;;;;;;-7.90;100.00;101211.94;5022047;28;20029;-75
2022/12/13 04:58:18;;;;;;;44.88;15.02;;;;;;;-7.90;100.00;101215.31;5033012;28;20032;-71
2022/12/13 05:00:43;;;;;;;43.13;14.85;;;;;;;-7.87;100.00;101227.22;5033930;28;20051;-70
2022/12/13 05:03:09;;;;;;;44.58;15.38;;;;;;;-7.88;100.00;101216.28;5032675;28;20013;-70
2022/12/13 05:05:38;;;;;;;44.08;15.07;;;;;;;-7.86;100.00;101221.41;5030829;28;20076;-71
2022/12/13 05:08:03;;;;;;;45.83;14.70;;;;;;;-7.87;100.00;101214.63;5022381;28;20469;-71
2022/12/13 05:10:29;;;;;;;46.92;14.57;;;;;;;-7.88;100.00;101211.25;5021370;28;20036;-70
2022/12/13 05:12:54;;;;;;;43.47;13.88;;;;;;;-7.93;100.00;101207.63;5033089;28;20061;-71
2022/12/13 05:15:19;;;;;;;38.55;14.98;;;;;;;-7.91;100.00;101210.22;5032800;28;20064;-70
2022/12/13 05:17:45;;;;;;;43.38;15.50;;;;;;;-7.93;100.00;101207.63;5032851;28;20096;-70
2022/12/13 05:20:10;;;;;;;46.35;13.82;;;;;;;-7.92;100.00;101211.00;5030295;28;20033;-70
2022/12/13 05:22:36;;;;;;;42.28;14.75;;;;;;;-7.92;100.00;101200.94;5012751;28;20463;-70
2022/12/13 05:25:02;;;;;;;42.50;13.55;;;;;;;-7.92;100.00;101211.00;5021295;28;20037;-70
2022/12/13 05:27:28;;;;;;;40.95;14.23;;;;;;;-7.93;100.00;101200.06;5032833;28;20025;-71
2022/12/13 05:29:54;;;;;;;45.28;15.27;;;;;;;-7.92;100.00;101191.75;5032444;28;20037;-75
2022/12/13 05:32:19;;;;;;;50.88;15.80;;;;;;;-7.92;100.00;101193.41;5032685;28;20025;-75
2022/12/13 05:34:45;;;;;;;46.92;14.88;;;;;;;-7.93;100.00;101195.03;5032628;28;20067;-75
2022/12/13 05:37:10;;;;;;;41.22;14.82;;;;;;;-7.93;100.00;101192.53;5017526;28;20038;-75
2022/12/13 05:39:35;;;;;;;45.20;14.27;;;;;;;-7.93;100.00;101192.53;5018531;28;20075;-75
2022/12/13 05:42:01;;;;;;;41.80;15.23;;;;;;;-7.92;100.00;101185.84;5032540;28;20056;-75
2022/12/13 05:44:26;;;;;;;42.75;13.68;;;;;;;-7.91;100.00;101190.94;5032114;28;20033;-75
2022/12/13 05:46:51;;;;;;;43.53;14.73;;;;;;;-7.92;100.00;101179.19;5032391;28;20025;-75
2022/12/13 05:49:17;;;;;;;42.67;14.73;;;;;;;-7.90;100.00;101186.78;5018110;28;20072;-75
2022/12/13 05:51:42;;;;;;;41.20;15.15;;;;;;;-7.93;100.00;101176.56;5012372;28;20022;-75
2022/12/13 05:54:07;;;;;;;41.67;14.63;;;;;;;-7.93;100.00;101174.06;5027020;28;20056;-75
2022/12/13 05:56:33;;;;;;;48.35;14.73;;;;;;;-7.93;100.00;101179.97;5032609;28;20025;-75
2022/12/13 05:58:59;;;;;;;42.28;14.48;;;;;;;-7.94;100.00;101177.34;5021053;28;20033;-76
2022/12/13 06:01:24;;;;;;;46.70;14.70;;;;;;;-7.97;100.00;101176.38;5030448;28;20018;-75
2022/12/13 06:03:50;;;;;;;43.72;14.80;;;;;;;-7.99;100.00;101175.47;5031833;28;20021;-75
2022/12/13 06:06:20;;;;;;;41.33;13.38;;;;;;;-7.98;100.00;101179.69;5020317;28;20030;-75
2022/12/13 06:08:45;;;;;;;42.47;15.15;;;;;;;-7.99;100.00;101175.47;5025934;28;20084;-75
2022/12/13 06:11:11;;;;;;;41.78;14.43;;;;;;;-8.01;100.00;101174.50;5031819;28;20025;-75
2022/12/13 06:13:36;;;;;;;46.50;15.02;;;;;;;-7.98;100.00;101181.31;5021141;28;20065;-75
2022/12/13 06:16:04;;;;;;;43.00;14.88;;;;;;;-7.97;100.00;101186.44;5030954;28;20053;-75
2022/12/13 06:18:32;;;;;;;43.03;14.00;;;;;;;-8.02;100.00;101175.28;5025310;28;20391;-75
2022/12/13 06:21:04;;;;;;;43.92;14.65;;;;;;;-7.98;100.00;101181.31;5016358;28;20026;-75
2022/12/13 06:23:30;;;;;;;51.47;15.43;;;;;;;-8.00;100.00;101182.91;5011442;28;20033;-75
2022/12/13 06:25:56;;;;;;;38.25;14.15;;;;;;;-8.06;100.00;101180.06;5013316;28;20028;-75
2022/12/13 06:28:21;;;;;;;45.15;14.65;;;;;;;-8.06;100.00;101188.47;5015708;28;20022;-75
2022/12/13 06:30:47;;;;;;;46.53;14.30;;;;;;;-8.09;100.00;101183.25;5021936;28;20419;-75
2022/12/13 06:33:12;;;;;;;42.65;14.15;;;;;;;-8.04;100.00;101188.53;5031293;28;20076;-75
2022/12/13 06:35:38;;;;;;;43.35;14.15;;;;;;;-8.13;100.00;101183.00;5029515;28;20396;-75
2022/12/13 06:38:04;;;;;;;44.85;14.85;;;;;;;-8.10;100.00;101178.13;5015932;28;20036;-75
2022/12/13 06:40:29;;;;;;;42.50;14.13;;;;;;;-8.12;100.00;101188.09;5021886;28;20083;-75
2022/12/13 06:42:55;;;;;;;41.95;14.15;;;;;;;-8.12;100.00;101187.25;5031460;28;20025;-75
2022/12/13 06:45:20;;;;;;;42.53;13.40;;;;;;;-8.13;100.00;101185.53;5021053;28;20113;-73
2022/12/13 06:47:46;;;;;;;38.13;13.20;;;;;;;-8.12;100.00;101189.78;5021023;28;20056;-75
2022/12/13 06:50:11;;;;;;;37.72;14.15;;;;;;;-8.15;100.00;101192.97;5012627;28;20056;-75
2022/12/13 06:52:36;;;;;;;44.53;13.63;;;;;;;-8.14;100.00;101186.31;5019827;28;20209;-76
2022/12/13 06:55:02;;;;;;;40.90;13.35;;;;;;;-8.16;100.00;101185.34;5010455;28;20035;-75
2022/12/13 06:57:30;;;;;;;42.08;14.65;;;;;;;-8.14;100.00;101184.66;5031199;28;20064;-75
2022/12/13 06:59:55;;;;;;;42.53;15.18;;;;;;;-8.13;100.00;101181.38;5022523;28;20437;-70
2022/12/13 07:02:21;;;;;;;42.67;14.23;;;;;;;-8.12;100.00;101193.13;5023586;28;20515;-70
2022/12/13 07:04:46;;;;;;;42.55;14.98;;;;;;;-8.13;100.00;101188.91;5018657;28;20029;-71
2022/12/13 07:07:12;;;;;;;50.85;14.10;;;;;;;-8.15;100.00;101190.47;5030617;28;20396;-71
2022/12/13 07:09:37;;;;;;;42.08;14.80;;;;;;;-8.16;100.00;101197.91;5029207;28;20511;-70
2022/12/13 07:12:03;;;;;;;51.08;15.40;;;;;;;-8.18;100.00;101191.91;5030536;28;20032;-70
2022/12/13 07:14:28;;;;;;;51.22;14.90;;;;;;;-8.20;100.00;101194.38;5029936;28;20104;-70
2022/12/13 07:16:53;;;;;;;44.53;14.20;;;;;;;-8.19;100.00;101195.25;5030738;28;20027;-70
2022/12/13 07:19:19;;;;;;;45.17;14.60;;;;;;;-8.19;100.00;101196.09;5008161;28;20033;-70
2022/12/13 07:21:44;;;;;;;44.58;14.95;;;;;;;-8.16;100.00;101190.38;5018167;28;20033;-71
2022/12/13 07:24:09;;;;;;;44.97;15.40;;;;;;;-8.17;100.00;101189.50;5030455;28;20057;-70
2022/12/13 07:26:35;;;;;;;41.97;14.38;;;;;;;-8.17;100.00;101189.50;5030543;28;20113;-70
2022/12/13 07:29:02;;;;;;;44.25;14.80;;;;;;;-8.17;100.00;101188.63;5026502;28;20068;-70
2022/12/13 07:31:28;;;;;;;45.17;14.57;;;;;;;-8.17;100.00;101188.63;5030396;28;20577;-71
2022/12/13 07:33:53;;;;;;;51.95;14.98;;;;;;;-8.18;100.00;101194.44;5030466;28;20021;-70
2022/12/13 07:36:21;;;;;;;50.75;16.42;;;;;;;-8.18;100.00;101200.31;5011307;28;20041;-71
2022/12/13 07:38:54;;;;;;;49.10;15.18;;;;;;;-8.19;100.00;101197.75;5030206;28;20026;-70
2022/12/13 07:41:20;;;;;;;43.67;14.73;;;;;;;-8.21;100.00;101192.63;5018130;28;20498;-70
2022/12/13 07:43:46;;;;;;;49.97;16.38;;;;;;;-8.20;100.00;101191.84;5024833;28;20453;-70
2022/12/13 07:46:11;;;;;;;52.03;16.75;;;;;;;-8.19;100.00;101198.63;5005508;28;20065;-71
2022/12/13 07:48:37;;;;;;;58.17;16.55;;;;;;;-8.21;100.00;101184.22;5009558;28;20108;-70
2022/12/13 07:51:06;;;;;;;53.83;16.10;;;;;;;-8.16;100.00;101203.81;5002764;28;20025;-70
2022/12/13 07:53:31;;;;;;;51.97;15.88;;;;;;;-8.14;100.00;101202.25;5001962;28;20041;-70
2022/12/13 07:56:01;;;;;;;55.33;16.70;;;;;;;-8.11;100.00;101202.41;5018655;28;20030;-70
2022/12/13 07:58:28;;;;;;;45.10;15.65;;;;;;;-8.08;100.00;101204.25;5005013;28;20431;-70
2022/12/13 08:01:01;;;;;;;51.63;15.63;;;;;;;-8.04;100.00;101213.69;5013188;28;20626;-70
2022/12/13 08:03:28;;;;;;;54.97;16.38;;;;;;;-8.01;100.00;101211.34;5011948;28;20461;-70
2022/12/13 08:06:02;;;;;;;58.03;17.25;;;;;;;-8.02;100.00;101205.44;5010177;28;20503;-70
2022/12/13 08:08:27;;;;;;;49.58;16.77;;;;;;;-7.98;100.00;101207.34;5013146;28;20046;-75
2022/12/13 08:10:53;;;;;;;44.97;15.05;;;;;;;-7.93;100.00;101209.28;5001411;28;20103;-75
2022/12/13 08:13:18;;;;;;;52.15;16.50;;;;;;;-7.88;100.00;101207.88;5001521;28;20036;-74
2022/12/13 08:15:43;;;;;;;52.30;16.35;;;;;;;-7.87;100.00;101210.47;5003873;28;20539;-75
2022/12/13 08:18:09;;;;;;;43.20;15.88;;;;;;;-7.86;100.00;101204.66;5017328;28;20757;-75
2022/12/13 08:20:34;;;;;;;51.20;16.42;;;;;;;-7.82;100.00;101205.69;5029920;28;20040;-75
2022/12/13 08:22:59;;;;;;;45.83;16.27;;;;;;;-7.83;100.00;101209.84;5021050;28;20022;-75
2022/12/13 08:25:25;;;;;;;54.55;17.27;;;;;;;-7.83;100.00;101203.94;5022316;28;20516;-75
2022/12/13 08:27:52;;;;;;;57.88;16.98;;;;;;;-7.82;100.00;101195.63;5033327;28;20025;-75
2022/12/13 08:30:18;;;;;;;53.90;16.00;;;;;;;-7.78;100.00;101207.63;5017529;28;20026;-75
2022/12/13 08:32:43;;;;;;;56.47;16.35;;;;;;;-7.76;100.00;101206.03;5032828;28;20025;-75
2022/12/13 08:35:09;;;;;;;54.97;17.65;;;;;;;-7.75;100.00;101207.75;5022756;28;20044;-75
2022/12/13 08:37:34;;;;;;;49.38;16.65;;;;;;;-7.70;100.00;101213.91;5004388;28;20025;-75
2022/12/13 08:39:59;;;;;;;51.92;17.00;;;;;;;-7.66;100.00;101220.84;5006921;28;20389;-75
2022/12/13 08:42:25;;;;;;;55.25;16.75;;;;;;;-7.60;100.00;101211.13;5014358;28;20021;-75
2022/12/13 08:44:52;;;;;;;55.90;17.88;;;;;;;-7.54;100.00;101210.59;5019686;28;20025;-74
2022/12/13 08:47:19;;;;;;;52.65;18.25;;;;;;;-7.49;100.00;101214.22;5014719;28;20037;-75
2022/12/13 08:49:45;;;;;;;57.78;18.65;;;;;;;-7.44;100.00;101216.22;5012057;28;20116;-75
2022/12/13 08:52:10;;;;;;;56.17;19.17;;;;;;;-7.40;100.00;101210.56;5011596;28;20105;-75
2022/12/13 08:54:35;;;;;;;53.63;18.60;;;;;;;-7.35;100.00;101216.69;5020919;28;20037;-75
2022/12/13 08:57:01;;;;;;;62.25;20.00;;;;;;;-7.23;100.00;101217.34;5014916;28;20025;-74
2022/12/13 08:59:26;;;;;;;59.08;19.27;;;;;;;-7.11;100.00;101216.28;5014417;28;20056;-75
2022/12/13 09:01:52;;;;;;;56.25;18.40;;;;;;;-7.04;100.00;101218.34;5010734;28;20049;-75
2022/12/13 09:04:17;;;;;;;64.43;20.05;;;;;;;-6.91;100.00;101229.13;5017337;28;20029;-75
2022/12/13 09:06:43;;;;;;;60.75;20.58;;;;;;;-6.77;100.00;101234.88;5020277;28;20113;-75
2022/12/13 09:09:08;;;;;;;58.83;19.38;;;;;;;-6.61;100.00;101229.81;4998363;28;20073;-74
2022/12/13 09:11:34;;;;;;;68.28;21.48;;;;;;;-6.47;100.00;101223.84;5007058;28;20034;-74
2022/12/13 09:13:59;;;;;;;71.85;22.48;;;;;;;-6.34;100.00;101219.41;5004310;28;20036;-75
2022/12/13 09:16:24;;;;;;;73.32;22.08;;;;;;;-6.21;100.00;101211.69;5003973;28;20029;-75
2022/12/13 09:18:51;;;;;;;69.72;21.17;;;;;;;-6.11;100.00;101216.38;5003474;28;20025;-75
2022/12/13 09:21:17;;;;;;;70.70;21.80;;;;;;;-6.02;100.00;101214.28;5007054;28;21878;-75
2022/12/13 09:23:42;;;;;;;65.90;21.35;;;;;;;-5.90;100.00;101216.53;5006211;28;20033;-75
2022/12/13 09:26:12;;;;;;;70.70;22.35;;;;;;;-5.79;100.00;101208.66;5005720;28;20369;-75
2022/12/13 09:28:38;;;;;;;68.63;22.40;;;;;;;-5.67;100.00;101211.78;5017543;28;20403;-75
2022/12/13 09:31:08;;;;;;;76.80;22.63;;;;;;;-5.58;100.00;101216.38;5023879;28;20022;-75
2022/12/13 09:33:34;;;;;;;74.20;23.15;;;;;;;-5.50;100.00;101220.13;5011286;28;20036;-75
2022/12/13 09:36:04;;;;;;;77.03;23.55;;;;;;;-5.42;100.00;101218.81;5003938;28;20033;-75
2022/12/13 09:38:30;;;;;;;71.60;23.02;;;;;;;-5.33;100.00;101215.88;5001658;28;20033;-75
2022/12/13 09:40:59;;;;;;;78.75;24.45;;;;;;;-5.23;100.00;101213.81;5008717;28;20040;-75
2022/12/13 09:43:28;;;;;;;65.90;22.98;;;;;;;-5.11;100.00;101218.53;5022597;28;20108;-75
2022/12/13 09:45:53;;;;;;;75.10;24.98;;;;;;;-4.96;100.00;101219.22;5017539;28;20052;-75
2022/12/13 09:48:20;;;;;;;78.75;24.77;;;;;;;-4.81;100.00;101219.91;5005056;28;20400;-75
2022/12/13 09:50:47;;;;;;;78.68;25.08;;;;;;;-4.67;100.00;101220.53;5012393;28;20053;-75
2022/12/13 09:53:16;;;;;;;75.05;24.17;;;;;;;-4.55;100.00;101213.44;5021280;28;20496;-75
2022/12/13 09:55:44;;;;;;;78.95;24.73;;;;;;;-4.42;100.00;101209.78;5011706;28;20093;-75
2022/12/13 09:58:30;;;;;;;69.93;24.27;;;;;;;-4.30;100.00;101207.78;5015497;28;20021;-75
2022/12/13 10:00:57;;;;;;;74.22;24.63;;;;;;;-4.22;100.00;101203.88;5012756;28;20040;-75
2022/12/13 10:03:24;;;;;;;76.93;24.65;;;;;;;-4.16;100.00;101188.94;5012940;28;20024;-75
2022/12/13 10:05:58;;;;;;;75.88;25.77;;;;;;;-4.04;100.00;101194.53;5019613;28;20045;-75
2022/12/13 10:08:30;;;;;;;71.87;24.53;;;;;;;-3.93;100.00;101183.94;5016524;28;20052;-75
2022/12/13 10:10:56;;;;;;;74.75;24.55;;;;;;;-3.83;100.00;101184.41;5007874;28;20522;-75
2022/12/13 10:13:36;;;;;;;73.95;25.17;;;;;;;-3.71;100.00;101184.88;5010805;28;20048;-74
2022/12/13 10:16:08;;;;;;;79.93;25.65;;;;;;;-3.61;100.00;101186.94;5003970;28;20377;-74
2022/12/13 10:18:37;;;;;;;78.32;25.67;;;;;;;-3.52;100.00;101178.84;5031831;28;20389;-75
2022/12/13 10:21:37;;;;;;;71.60;24.05;;;;;;;-3.44;100.00;101163.94;5015247;28;20571;-74
2022/12/13 10:24:15;;;;;;;73.28;24.33;;;;;;;-3.41;100.00;101171.66;5018751;28;20090;-74
2022/12/13 10:26:40;;;;;;;69.97;24.13;;;;;;;-3.41;100.00;101172.50;5000553;28;20590;-74
2022/12/13 10:29:07;;;;;;;72.40;24.00;;;;;;;-3.36;100.00;101165.94;4999825;28;20552;-74
2022/12/13 10:31:44;;;;;;;75.28;24.35;;;;;;;-3.28;100.00;101159.50;5006481;28;20091;-77
2022/12/13 10:34:21;;;;;;;65.32;23.45;;;;;;;-3.20;100.00;101145.41;5019122;28;20025;-76
2022/12/13 10:36:47;;;;;;;75.47;25.77;;;;;;;-3.19;100.00;101142.06;5018275;28;20546;-76
2022/12/13 10:39:18;;;;;;;74.82;24.02;;;;;;;-3.07;100.00;101154.31;5006013;28;20025;-77
2022/12/13 10:41:46;;;;;;;66.05;22.92;;;;;;;-3.03;100.00;101147.69;5019561;28;20033;-77
2022/12/13 10:44:11;;;;;;;69.68;23.88;;;;;;;-3.03;100.00;101148.56;5012883;28;20033;-77
2022/12/13 10:46:46;;;;;;;72.55;23.48;;;;;;;-3.00;100.00;101152.91;5003848;28;20060;-77
2022/12/13 10:49:18;;;;;;;68.75;22.80;;;;;;;-2.97;100.00;101150.44;5013728;28;20042;-77
2022/12/13 10:51:44;;;;;;;67.07;23.88;;;;;;;-2.97;100.00;101148.78;5009480;28;20022;-77
2022/12/13 10:54:29;;;;;;;73.15;24.20;;;;;;;-2.96;100.00;101139.50;5012296;28;20088;-77
2022/12/13 10:56:59;;;;;;;68.43;23.08;;;;;;;-2.98;100.00;101131.84;5018226;28;20998;-77
2022/12/13 10:59:36;;;;;;;65.30;22.77;;;;;;;-2.96;100.00;101130.22;5017455;28;20388;-77
2022/12/13 11:02:28;;;;;;;64.18;22.23;;;;;;;-2.93;100.00;101125.25;5008543;28;20030;-78
2022/12/13 11:04:53;;;;;;;66.53;22.27;;;;;;;-2.88;100.00;101122.91;5006991;28;20408;-77
2022/12/13 11:07:33;;;;;;;63.35;23.30;;;;;;;-2.81;100.00;101127.38;5009865;28;20476;-77
2022/12/13 11:10:23;;;;;;;64.05;22.20;;;;;;;-2.74;100.00;101114.09;5012307;28;20038;-77
2022/12/13 11:12:50;;;;;;;56.35;20.40;;;;;;;-2.72;100.00;101109.03;5008935;28;20022;-77